Time;durP1;ratioP1;P1;durP2;ratioP2;P2;SDS_P1;SDS_P2;PMS_P1;PMS_P2;Temp;Humidity;BMP_temperature;BMP_pressure;BME280_temperature;BME280_humidity;BME280_pressure;Samples;Min_cycle;Max_cycle;Signal;HPM_P1;HPM_P2
2022/11/30 00:01:18;;;;;;;16.05;8.00;;;6.80;99.90;;;;;;5054579;28;20458;-64
2022/11/30 00:03:45;;;;;;;26.92;9.48;;;6.80;99.90;;;;;;5054431;28;20044;-64
2022/11/30 00:06:14;;;;;;;20.17;8.43;;;6.80;99.90;;;;;;5054467;28;20090;-64
2022/11/30 00:08:41;;;;;;;20.40;9.10;;;6.80;99.90;;;;;;5036402;28;20060;-64
2022/11/30 00:11:19;;;;;;;20.65;8.90;;;6.80;99.90;;;;;;5054333;28;20044;-64
2022/11/30 00:13:47;;;;;;;20.38;7.82;;;6.80;99.90;;;;;;5054286;28;20049;-65
2022/11/30 00:16:14;;;;;;;19.30;8.90;;;6.80;99.90;;;;;;5054378;28;20037;-65
2022/11/30 00:18:41;;;;;;;18.50;8.18;;;6.80;99.90;;;;;;5054048;28;20041;-64
2022/11/30 00:21:11;;;;;;;23.75;8.52;;;6.80;99.90;;;;;;5054209;28;20112;-64
2022/11/30 00:23:40;;;;;;;23.63;8.90;;;6.80;99.90;;;;;;5054099;28;20052;-64
2022/11/30 00:26:15;;;;;;;21.80;8.82;;;6.80;99.90;;;;;;5054075;28;20041;-64
2022/11/30 00:28:46;;;;;;;24.40;8.80;;;6.80;99.90;;;;;;5054030;28;20039;-64
2022/11/30 00:31:15;;;;;;;17.30;8.07;;;6.90;99.90;;;;;;5036417;28;20460;-64
2022/11/30 00:33:42;;;;;;;22.05;8.50;;;6.80;99.90;;;;;;5036164;28;20049;-64
2022/11/30 00:36:12;;;;;;;23.10;8.02;;;6.80;99.90;;;;;;5036105;28;20036;-64
2022/11/30 00:38:38;;;;;;;26.50;9.32;;;6.80;99.90;;;;;;5054131;28;20423;-64
2022/11/30 00:41:04;;;;;;;24.55;9.43;;;6.80;99.90;;;;;;5053742;28;20044;-64
2022/11/30 00:43:31;;;;;;;20.50;9.52;;;6.80;99.90;;;;;;5053765;28;20396;-65
2022/11/30 00:45:58;;;;;;;19.38;8.38;;;6.80;99.90;;;;;;5053590;28;20044;-64
2022/11/30 00:48:25;;;;;;;19.45;9.02;;;6.80;99.90;;;;;;5053591;28;20462;-64
2022/11/30 00:50:52;;;;;;;23.67;9.70;;;6.70;99.90;;;;;;5036023;28;20040;-64
2022/11/30 00:53:19;;;;;;;26.20;9.10;;;6.70;99.90;;;;;;5053530;28;20043;-64
2022/11/30 00:55:47;;;;;;;26.30;9.10;;;6.70;99.90;;;;;;5053493;28;20037;-64
2022/11/30 00:58:14;;;;;;;24.10;9.13;;;6.70;99.90;;;;;;5053478;28;20045;-64
2022/11/30 01:00:40;;;;;;;17.95;7.90;;;6.70;99.90;;;;;;5053423;28;20486;-65
2022/11/30 01:03:06;;;;;;;20.23;9.40;;;6.70;99.90;;;;;;5053688;28;20092;-65
2022/11/30 01:05:33;;;;;;;28.23;9.18;;;6.70;99.90;;;;;;5035668;28;20087;-64
2022/11/30 01:08:01;;;;;;;21.60;8.52;;;6.70;99.90;;;;;;5035610;28;20045;-64
2022/11/30 01:10:27;;;;;;;22.38;9.13;;;6.60;99.90;;;;;;5053151;28;20049;-64
2022/11/30 01:12:53;;;;;;;24.67;8.90;;;6.60;99.90;;;;;;5035526;28;20068;-64
2022/11/30 01:15:20;;;;;;;18.58;9.70;;;6.60;99.90;;;;;;5053289;28;20112;-64
2022/11/30 01:17:46;;;;;;;20.55;9.07;;;6.60;99.90;;;;;;5035685;28;20041;-65
2022/11/30 01:20:12;;;;;;;25.42;9.23;;;6.50;99.90;;;;;;5035352;28;20036;-64
2022/11/30 01:22:38;;;;;;;20.23;9.63;;;6.50;99.90;;;;;;5053135;28;20033;-64
2022/11/30 01:25:05;;;;;;;23.85;9.77;;;6.50;99.90;;;;;;5053118;28;20099;-65
2022/11/30 01:27:31;;;;;;;21.88;8.93;;;6.50;99.90;;;;;;5053434;28;20041;-64
2022/11/30 01:29:57;;;;;;;20.95;8.60;;;6.50;99.90;;;;;;5035484;28;20041;-64
2022/11/30 01:32:23;;;;;;;20.73;8.85;;;6.50;99.90;;;;;;5052986;28;20044;-64
2022/11/30 01:34:49;;;;;;;18.77;9.23;;;6.50;99.90;;;;;;5052895;28;20237;-64
2022/11/30 01:37:16;;;;;;;24.23;8.73;;;6.50;99.90;;;;;;5053040;28;20432;-64
2022/11/30 01:39:43;;;;;;;20.20;9.07;;;6.50;99.90;;;;;;5053018;28;20391;-64
2022/11/30 01:42:16;;;;;;;28.50;9.77;;;8.10;99.90;;;;;;5052959;28;20502;-65
2022/11/30 01:44:51;;;;;;;20.92;8.60;;;6.50;99.90;;;;;;5035166;28;20037;-65
2022/11/30 01:47:26;;;;;;;22.35;9.05;;;6.50;99.90;;;;;;5052933;28;20036;-69
2022/11/30 01:49:58;;;;;;;18.67;9.27;;;6.50;99.90;;;;;;5052822;28;20047;-65
2022/11/30 01:52:30;;;;;;;18.50;8.95;;;6.50;99.90;;;;;;5052873;28;20048;-64
2022/11/30 01:55:04;;;;;;;18.90;8.35;;;6.50;99.90;;;;;;5052773;28;20041;-64
2022/11/30 01:58:00;;;;;;;20.48;8.45;;;6.50;99.90;;;;;;5052756;28;20049;-64
2022/11/30 02:00:26;;;;;;;16.52;8.02;;;6.50;99.90;;;;;;5052700;28;20041;-65
2022/11/30 02:03:30;;;;;;;26.63;9.63;;;6.50;99.90;;;;;;5052763;28;20116;-67
2022/11/30 02:05:58;;;;;;;16.40;7.70;;;6.50;99.90;;;;;;5045331;28;20123;-65
2022/11/30 02:08:24;;;;;;;14.60;7.20;;;6.50;99.90;;;;;;5052359;28;20496;-65
2022/11/30 02:10:58;;;;;;;20.88;9.50;;;6.50;99.90;;;;;;5052668;28;20080;-65
2022/11/30 02:14:00;;;;;;;19.00;8.35;;;6.50;99.90;;;;;;5052566;28;20037;-68
2022/11/30 02:16:43;;;;;;;20.40;9.27;;;6.50;99.90;;;;;;5052608;28;20033;-64
2022/11/30 02:19:13;;;;;;;20.90;9.45;;;6.50;99.90;;;;;;5053412;28;20052;-64
2022/11/30 02:21:58;;;;;;;23.15;9.90;;;6.50;99.90;;;;;;5056321;28;20073;-64
2022/11/30 02:24:37;;;;;;;22.23;8.60;;;6.50;99.90;;;;;;5056358;28;20044;-65
2022/11/30 02:27:29;;;;;;;19.35;9.63;;;6.50;99.90;;;;;;5056290;28;20064;-64
2022/11/30 02:30:21;;;;;;;21.35;9.30;;;6.50;99.90;;;;;;5056349;28;20033;-64
2022/11/30 02:32:49;;;;;;;23.95;9.57;;;6.50;99.90;;;;;;5037989;28;20053;-64
2022/11/30 02:35:20;;;;;;;14.98;8.15;;;6.50;99.90;;;;;;5056095;28;20037;-65
2022/11/30 02:37:48;;;;;;;18.80;8.02;;;6.50;99.90;;;;;;5056188;28;20124;-64
2022/11/30 02:40:17;;;;;;;22.08;9.05;;;6.60;99.90;;;;;;5038547;28;20491;-64
2022/11/30 02:42:44;;;;;;;17.90;8.95;;;6.50;99.90;;;;;;5055978;28;20040;-64
2022/11/30 02:45:11;;;;;;;17.42;8.65;;;6.50;99.90;;;;;;5055955;28;20123;-64
2022/11/30 02:47:48;;;;;;;19.92;8.63;;;6.60;99.90;;;;;;5038203;28;20076;-65
2022/11/30 02:50:20;;;;;;;18.90;9.48;;;6.50;99.90;;;;;;5055868;28;20039;-64
2022/11/30 02:52:50;;;;;;;21.35;9.05;;;6.60;99.90;;;;;;5056125;28;20044;-65
2022/11/30 02:55:18;;;;;;;19.30;9.00;;;6.60;99.90;;;;;;5037733;28;20577;-64
2022/11/30 02:57:45;;;;;;;13.40;7.70;;;6.60;99.90;;;;;;5056096;28;20134;-65
2022/11/30 03:00:13;;;;;;;18.30;9.23;;;6.60;99.90;;;;;;5055813;28;20040;-66
2022/11/30 03:02:40;;;;;;;19.70;9.23;;;6.60;99.90;;;;;;5037909;28;20041;-64
2022/11/30 03:05:08;;;;;;;24.58;9.82;;;6.60;99.90;;;;;;5055665;28;20036;-64
2022/11/30 03:07:35;;;;;;;22.20;8.18;;;6.60;99.90;;;;;;5055544;28;20049;-64
2022/11/30 03:10:01;;;;;;;19.58;8.75;;;6.60;99.90;;;;;;5055408;28;20053;-65
2022/11/30 03:12:28;;;;;;;19.92;9.32;;;6.60;99.90;;;;;;5037794;28;20041;-65
2022/11/30 03:14:55;;;;;;;23.25;9.85;;;6.60;99.90;;;;;;5055644;28;20033;-64
2022/11/30 03:17:21;;;;;;;18.92;8.55;;;6.60;99.90;;;;;;5055395;28;20041;-65
2022/11/30 03:19:47;;;;;;;23.60;8.65;;;6.60;99.90;;;;;;5037578;28;20048;-64
2022/11/30 03:22:14;;;;;;;20.38;8.43;;;6.60;99.90;;;;;;5037800;28;20082;-64
2022/11/30 03:24:39;;;;;;;19.63;9.48;;;6.60;99.90;;;;;;5055289;28;20881;-64
2022/11/30 03:27:05;;;;;;;20.70;9.18;;;6.60;99.90;;;;;;5055546;28;20041;-64
2022/11/30 03:29:31;;;;;;;19.00;8.30;;;6.60;99.90;;;;;;5055120;28;20037;-65
2022/11/30 03:31:57;;;;;;;15.35;7.70;;;6.60;99.90;;;;;;5055596;28;20041;-64
2022/11/30 03:34:25;;;;;;;18.75;8.93;;;7.10;99.90;;;;;;5037306;28;20036;-65
2022/11/30 03:36:51;;;;;;;18.98;8.15;;;6.60;99.90;;;;;;5055311;28;20484;-64
2022/11/30 03:39:16;;;;;;;19.10;8.30;;;6.60;99.90;;;;;;5055352;28;20044;-65
2022/11/30 03:41:42;;;;;;;23.13;8.88;;;6.60;99.90;;;;;;5055244;28;20071;-64
2022/11/30 03:44:08;;;;;;;20.63;8.15;;;6.60;99.90;;;;;;5055301;28;20051;-64
2022/11/30 03:46:33;;;;;;;21.70;8.77;;;6.60;99.90;;;;;;5055156;28;20029;-65
2022/11/30 03:48:59;;;;;;;20.02;8.43;;;6.60;99.90;;;;;;5037255;28;20053;-64
2022/11/30 03:51:25;;;;;;;22.95;9.50;;;6.60;99.90;;;;;;5054835;28;20396;-65
2022/11/30 03:53:50;;;;;;;17.65;8.52;;;6.60;99.90;;;;;;5054676;28;20044;-64
2022/11/30 03:56:16;;;;;;;16.15;8.13;;;6.80;99.90;;;;;;5055020;28;20037;-64
2022/11/30 03:58:42;;;;;;;19.55;8.02;;;6.60;99.90;;;;;;5054628;28;20044;-64
2022/11/30 04:01:14;;;;;;;18.83;8.50;;;6.60;99.90;;;;;;5054588;28;20040;-64
2022/11/30 04:03:40;;;;;;;18.77;8.05;;;6.70;99.90;;;;;;5054543;28;20103;-64
2022/11/30 04:06:08;;;;;;;18.90;8.18;;;6.60;99.90;;;;;;5054837;28;20122;-64
2022/11/30 04:08:34;;;;;;;22.58;9.55;;;6.60;99.90;;;;;;5054574;28;20365;-64
2022/11/30 04:11:01;;;;;;;20.23;9.30;;;6.60;99.90;;;;;;5054699;28;20115;-64
2022/11/30 04:13:30;;;;;;;17.80;8.23;;;7.20;99.90;;;;;;5054571;28;20045;-64
2022/11/30 04:15:56;;;;;;;18.58;8.30;;;7.20;99.90;;;;;;5054672;28;20037;-65
2022/11/30 04:18:23;;;;;;;19.48;8.50;;;6.60;99.90;;;;;;5054243;28;20029;-66
2022/11/30 04:20:53;;;;;;;19.95;8.88;;;6.60;99.90;;;;;;5054521;28;20041;-65
2022/11/30 04:23:20;;;;;;;17.07;8.23;;;6.60;99.90;;;;;;5054501;28;20106;-64
2022/11/30 04:25:47;;;;;;;19.45;8.20;;;6.60;99.90;;;;;;5054455;28;20307;-65
2022/11/30 04:28:13;;;;;;;17.40;7.53;;;6.60;99.90;;;;;;5054369;28;20040;-64
2022/11/30 04:30:39;;;;;;;21.58;8.13;;;6.90;99.90;;;;;;5054375;28;20033;-65
2022/11/30 04:33:05;;;;;;;24.23;8.25;;;6.60;99.90;;;;;;5054206;28;20045;-64
2022/11/30 04:35:31;;;;;;;20.33;8.68;;;6.60;99.90;;;;;;5054160;28;20037;-64
2022/11/30 04:37:58;;;;;;;18.05;8.93;;;6.70;99.90;;;;;;5054235;28;20044;-64
2022/11/30 04:40:23;;;;;;;22.63;8.98;;;6.70;99.90;;;;;;5053852;28;20029;-64
2022/11/30 04:42:49;;;;;;;22.27;8.75;;;6.50;99.90;;;;;;5053646;28;20099;-64
2022/11/30 04:45:14;;;;;;;25.83;8.23;;;7.20;99.90;;;;;;5053769;28;20040;-64
2022/11/30 04:47:40;;;;;;;24.50;8.90;;;6.50;99.90;;;;;;5054039;28;20041;-64
2022/11/30 04:50:07;;;;;;;20.05;7.93;;;6.60;99.90;;;;;;5053986;28;20044;-65
2022/11/30 04:52:33;;;;;;;29.58;10.23;;;6.60;99.90;;;;;;5053987;28;20068;-65
2022/11/30 04:54:58;;;;;;;22.73;9.75;;;6.50;99.90;;;;;;5053715;28;20091;-65
2022/11/30 04:57:24;;;;;;;21.08;8.50;;;6.50;99.90;;;;;;5053844;28;20170;-65
2022/11/30 04:59:50;;;;;;;26.70;10.02;;;6.60;99.90;;;;;;5053562;28;20033;-65
2022/11/30 05:02:15;;;;;;;24.63;9.57;;;6.50;99.90;;;;;;5053787;28;20037;-64
2022/11/30 05:04:41;;;;;;;23.52;9.20;;;6.50;99.90;;;;;;5053766;28;20067;-65
2022/11/30 05:07:07;;;;;;;20.95;8.45;;;6.50;99.90;;;;;;5035670;28;20095;-64
2022/11/30 05:09:33;;;;;;;21.08;8.95;;;7.20;99.90;;;;;;5053209;28;20049;-64
2022/11/30 05:11:58;;;;;;;18.48;8.70;;;6.80;99.90;;;;;;5053623;28;20044;-64
2022/11/30 05:14:24;;;;;;;27.23;9.57;;;6.50;99.90;;;;;;5053537;28;20041;-65
2022/11/30 05:16:50;;;;;;;27.45;10.07;;;6.50;99.90;;;;;;5053315;28;20399;-65
2022/11/30 05:19:16;;;;;;;23.13;8.68;;;6.50;99.90;;;;;;5053565;28;20041;-64
2022/11/30 05:21:42;;;;;;;25.15;9.43;;;6.40;99.90;;;;;;5053486;28;20032;-66
2022/11/30 05:24:08;;;;;;;19.23;8.85;;;6.40;99.90;;;;;;5053140;28;20171;-65
2022/11/30 05:26:34;;;;;;;24.92;9.15;;;6.40;99.90;;;;;;5053421;28;20033;-64
2022/11/30 05:29:00;;;;;;;22.35;10.25;;;6.40;99.90;;;;;;5035295;28;20080;-64
2022/11/30 05:31:26;;;;;;;20.88;8.93;;;6.40;99.90;;;;;;5053311;28;20388;-65
2022/11/30 05:33:52;;;;;;;21.40;8.68;;;6.40;99.90;;;;;;5053091;28;20043;-64
2022/11/30 05:36:19;;;;;;;19.10;7.53;;;6.40;99.90;;;;;;5053364;28;20068;-64
2022/11/30 05:38:45;;;;;;;19.17;8.05;;;6.60;99.90;;;;;;5053268;28;20033;-65
2022/11/30 05:41:11;;;;;;;23.42;8.48;;;6.40;99.90;;;;;;5053335;28;20090;-64
2022/11/30 05:43:36;;;;;;;21.63;8.63;;;6.40;99.90;;;;;;5053286;28;20179;-64
2022/11/30 05:46:04;;;;;;;20.83;8.57;;;6.60;99.90;;;;;;5053224;28;20387;-64
2022/11/30 05:48:30;;;;;;;25.42;9.07;;;6.30;99.90;;;;;;5053241;28;20462;-64
2022/11/30 05:51:08;;;;;;;22.58;9.45;;;6.40;99.90;;;;;;5053313;28;20037;-64
2022/11/30 05:53:34;;;;;;;21.48;8.70;;;6.30;99.90;;;;;;5053075;28;20418;-64
2022/11/30 05:56:04;;;;;;;18.25;8.35;;;6.30;99.90;;;;;;5057114;28;20124;-64
2022/11/30 05:58:30;;;;;;;24.08;8.43;;;6.30;99.90;;;;;;5056894;28;20036;-64
2022/11/30 06:00:56;;;;;;;16.52;8.05;;;6.20;99.90;;;;;;5057088;28;20036;-64
2022/11/30 06:03:21;;;;;;;23.23;8.27;;;6.30;99.90;;;;;;5057112;28;20048;-64
2022/11/30 06:05:51;;;;;;;20.48;7.78;;;6.30;99.90;;;;;;5056792;28;20045;-65
2022/11/30 06:08:20;;;;;;;15.45;7.43;;;6.70;99.90;;;;;;5057070;28;20068;-64
2022/11/30 06:10:46;;;;;;;14.73;7.60;;;6.30;99.90;;;;;;5056486;28;20403;-64
2022/11/30 06:13:12;;;;;;;20.65;8.23;;;6.30;99.90;;;;;;5056566;28;20080;-64
2022/11/30 06:15:39;;;;;;;17.52;7.45;;;6.30;99.90;;;;;;5056916;28;20064;-64
2022/11/30 06:18:05;;;;;;;16.77;7.07;;;6.30;99.90;;;;;;5056893;28;20033;-67
2022/11/30 06:20:32;;;;;;;24.52;8.23;;;6.30;99.90;;;;;;5056751;28;20088;-64
2022/11/30 06:22:58;;;;;;;18.45;7.07;;;6.30;99.90;;;;;;5022250;28;20029;-64
2022/11/30 06:25:26;;;;;;;18.92;8.10;;;6.20;99.90;;;;;;5056570;28;20040;-66
2022/11/30 06:27:52;;;;;;;17.30;7.82;;;6.30;99.90;;;;;;5056687;28;20114;-64
2022/11/30 06:30:17;;;;;;;17.02;8.65;;;6.30;99.90;;;;;;5056348;28;20081;-64
2022/11/30 06:32:47;;;;;;;16.60;8.23;;;6.30;99.90;;;;;;5056523;28;20052;-64
2022/11/30 06:35:14;;;;;;;19.63;8.35;;;6.30;99.90;;;;;;5056435;28;20097;-64
2022/11/30 06:37:39;;;;;;;19.20;7.30;;;6.20;99.90;;;;;;5056495;28;20033;-64
2022/11/30 06:40:06;;;;;;;17.38;7.72;;;6.20;99.90;;;;;;5056243;28;20037;-64
2022/11/30 06:42:33;;;;;;;18.75;7.10;;;6.20;99.90;;;;;;5056350;28;20539;-64
2022/11/30 06:44:59;;;;;;;13.60;6.68;;;6.50;99.90;;;;;;5056346;28;20179;-64
2022/11/30 06:47:26;;;;;;;21.65;7.88;;;6.50;99.90;;;;;;5056455;28;20076;-63
2022/11/30 06:49:52;;;;;;;12.38;6.47;;;6.20;99.90;;;;;;5055993;28;20095;-64
2022/11/30 06:52:17;;;;;;;14.15;6.40;;;6.20;99.90;;;;;;5056242;28;20037;-62
2022/11/30 06:54:43;;;;;;;13.23;6.13;;;6.80;99.90;;;;;;5054641;28;20080;-63
2022/11/30 06:57:09;;;;;;;16.80;6.68;;;6.20;99.90;;;;;;5055809;28;20045;-62
2022/11/30 06:59:41;;;;;;;11.82;5.82;;;6.20;99.90;;;;;;5055781;28;20052;-64
2022/11/30 07:02:14;;;;;;;13.15;6.82;;;6.10;99.90;;;;;;5037969;28;20087;-63
2022/11/30 07:04:40;;;;;;;14.35;5.90;;;6.90;99.90;;;;;;5055508;28;20523;-62
2022/11/30 07:07:06;;;;;;;14.75;6.07;;;6.40;99.90;;;;;;5055910;28;20036;-64
2022/11/30 07:09:35;;;;;;;14.50;6.20;;;6.20;99.90;;;;;;5055574;28;20057;-63
2022/11/30 07:12:02;;;;;;;15.80;6.57;;;6.20;99.90;;;;;;5055629;28;20041;-64
2022/11/30 07:14:29;;;;;;;16.83;5.93;;;6.20;99.90;;;;;;5037606;28;20037;-64
2022/11/30 07:16:55;;;;;;;10.23;5.40;;;6.10;99.90;;;;;;5055781;28;20037;-64
2022/11/30 07:19:20;;;;;;;19.27;5.97;;;6.10;99.90;;;;;;5055690;28;20037;-64
2022/11/30 07:21:46;;;;;;;14.18;5.43;;;6.20;99.90;;;;;;5055604;28;20059;-64
2022/11/30 07:26:59;;;;;;;11.98;5.80;;;6.10;99.90;;;;;;5055272;28;20045;-63
2022/11/30 07:29:26;;;;;;;12.60;6.15;;;6.20;99.90;;;;;;5037509;28;20099;-64
2022/11/30 07:31:53;;;;;;;7.53;4.57;;;6.20;99.90;;;;;;5055126;28;20377;-65
2022/11/30 07:34:20;;;;;;;11.75;5.25;;;6.20;99.90;;;;;;5055048;28;20548;-64
2022/11/30 07:36:47;;;;;;;11.70;5.70;;;6.10;99.90;;;;;;5037442;28;20048;-64
2022/11/30 07:39:14;;;;;;;7.63;5.15;;;6.20;99.90;;;;;;5055271;28;20073;-64
2022/11/30 07:41:40;;;;;;;11.13;5.55;;;6.10;99.90;;;;;;5054928;28;20044;-64
2022/11/30 07:44:07;;;;;;;10.98;5.78;;;6.10;99.90;;;;;;5054961;28;20043;-64
2022/11/30 07:46:37;;;;;;;11.55;5.85;;;6.10;99.90;;;;;;5054874;28;20094;-64
2022/11/30 07:49:07;;;;;;;11.43;5.85;;;6.20;99.90;;;;;;5055033;28;20099;-64
2022/11/30 07:51:33;;;;;;;10.40;5.70;;;6.10;99.90;;;;;;5055070;28;20032;-64
2022/11/30 07:53:59;;;;;;;13.88;6.03;;;6.10;99.90;;;;;;5037071;28;20041;-65
2022/11/30 07:56:26;;;;;;;16.52;5.07;;;6.60;99.90;;;;;;5054952;28;20029;-64
2022/11/30 07:58:57;;;;;;;10.18;5.55;;;6.40;99.90;;;;;;5054654;28;20045;-64
2022/11/30 08:01:25;;;;;;;9.68;5.63;;;6.10;99.90;;;;;;5054886;28;20522;-64
2022/11/30 08:03:52;;;;;;;10.05;5.18;;;6.10;99.90;;;;;;5036700;28;20049;-64
2022/11/30 08:06:27;;;;;;;11.45;6.03;;;6.10;99.90;;;;;;5054826;28;20041;-63
2022/11/30 08:08:55;;;;;;;12.10;4.93;;;6.10;99.90;;;;;;5036663;28;20052;-64
2022/11/30 08:11:25;;;;;;;14.23;6.20;;;6.20;99.90;;;;;;5054332;28;20051;-64
2022/11/30 08:13:52;;;;;;;10.52;5.95;;;6.10;99.90;;;;;;5054531;28;20033;-64
2022/11/30 08:16:21;;;;;;;13.63;6.53;;;6.10;99.90;;;;;;5036330;28;20087;-64
2022/11/30 08:18:47;;;;;;;12.27;6.30;;;6.10;99.90;;;;;;5053904;28;20170;-64
2022/11/30 08:21:15;;;;;;;12.25;6.03;;;6.10;99.90;;;;;;5054428;28;20498;-65
2022/11/30 08:23:46;;;;;;;9.55;5.25;;;6.10;99.90;;;;;;5054455;28;20120;-64
2022/11/30 08:26:38;;;;;;;10.55;5.93;;;6.10;99.90;;;;;;5036317;28;20133;-64
2022/11/30 08:29:04;;;;;;;12.30;5.65;;;6.20;99.90;;;;;;5054026;28;20076;-64
2022/11/30 08:31:34;;;;;;;11.23;5.10;;;6.20;99.90;;;;;;5036257;28;20040;-64
2022/11/30 08:34:02;;;;;;;12.38;5.85;;;6.20;99.90;;;;;;5053843;28;20488;-64
2022/11/30 08:36:30;;;;;;;9.77;5.45;;;6.20;99.90;;;;;;5054151;28;20044;-68
2022/11/30 08:38:57;;;;;;;12.25;5.63;;;6.20;99.90;;;;;;5053915;28;20063;-64
2022/11/30 08:41:25;;;;;;;9.25;5.65;;;6.10;99.90;;;;;;5053878;28;20103;-64
2022/11/30 08:43:51;;;;;;;13.43;5.55;;;6.10;99.90;;;;;;5053980;28;20043;-64
2022/11/30 08:46:19;;;;;;;11.13;6.13;;;6.20;99.90;;;;;;5054103;28;20053;-64
2022/11/30 08:48:46;;;;;;;11.35;5.60;;;6.20;99.90;;;;;;5035916;28;20045;-64
2022/11/30 08:51:15;;;;;;;13.50;6.28;;;6.20;99.90;;;;;;5036009;28;20090;-64
2022/11/30 08:53:41;;;;;;;10.30;5.75;;;6.20;99.90;;;;;;5053524;28;20045;-64
2022/11/30 08:56:11;;;;;;;14.48;6.55;;;6.20;99.90;;;;;;5036358;28;20532;-64
2022/11/30 08:58:38;;;;;;;9.73;5.70;;;6.20;99.90;;;;;;5036115;28;20033;-65
2022/11/30 09:01:14;;;;;;;10.70;6.35;;;6.20;99.90;;;;;;5053480;28;20032;-64
2022/11/30 09:03:41;;;;;;;12.57;5.60;;;6.20;99.90;;;;;;5053748;28;20045;-64
2022/11/30 09:06:16;;;;;;;10.05;5.50;;;6.20;99.90;;;;;;5053457;28;20048;-64
2022/11/30 09:08:45;;;;;;;8.50;5.72;;;6.30;99.90;;;;;;5053412;28;20067;-64
2022/11/30 09:11:14;;;;;;;8.48;5.65;;;6.30;99.90;;;;;;5053196;28;20053;-64
2022/11/30 09:13:41;;;;;;;10.50;6.38;;;6.30;99.90;;;;;;5053324;28;20084;-64
2022/11/30 09:16:08;;;;;;;11.45;6.15;;;6.20;99.90;;;;;;5053639;28;20100;-64
2022/11/30 09:18:36;;;;;;;11.13;6.70;;;6.30;99.90;;;;;;5053218;28;20045;-64
2022/11/30 09:21:08;;;;;;;13.18;5.85;;;6.30;99.90;;;;;;5053250;28;20095;-64
2022/11/30 09:23:36;;;;;;;10.05;5.45;;;6.30;99.90;;;;;;5053176;28;20041;-64
2022/11/30 09:26:05;;;;;;;11.07;5.90;;;6.20;99.90;;;;;;5053407;28;20037;-64
2022/11/30 09:28:35;;;;;;;10.50;5.45;;;6.20;99.90;;;;;;5053053;28;20037;-65
2022/11/30 09:31:07;;;;;;;9.70;5.63;;;6.30;99.90;;;;;;5053083;28;20048;-64
2022/11/30 09:33:34;;;;;;;14.18;5.18;;;6.30;99.90;;;;;;5052937;28;20041;-64
2022/11/30 09:36:05;;;;;;;10.80;5.95;;;6.30;99.90;;;;;;5053343;28;20044;-64
2022/11/30 09:38:35;;;;;;;9.50;5.73;;;6.30;99.90;;;;;;5053039;28;20388;-64
2022/11/30 09:41:24;;;;;;;12.38;5.57;;;6.30;99.90;;;;;;5053327;28;20095;-64
2022/11/30 09:43:56;;;;;;;11.13;5.70;;;6.40;99.90;;;;;;5053295;28;20033;-64
2022/11/30 09:46:48;;;;;;;10.00;6.38;;;6.30;99.90;;;;;;5052928;28;20044;-64
2022/11/30 09:49:26;;;;;;;11.88;5.93;;;6.40;99.90;;;;;;5035338;28;20511;-64
2022/11/30 09:51:57;;;;;;;11.75;5.95;;;6.50;99.90;;;;;;5052856;28;20400;-64
2022/11/30 09:54:37;;;;;;;11.32;5.93;;;6.60;99.90;;;;;;5053111;28;20395;-64
2022/11/30 09:57:29;;;;;;;11.98;6.32;;;6.60;99.90;;;;;;5035086;28;20044;-64
2022/11/30 10:00:01;;;;;;;16.95;6.60;;;6.60;99.90;;;;;;5052831;28;20041;-64
2022/11/30 10:02:31;;;;;;;13.68;6.47;;;6.70;99.90;;;;;;5035211;28;20037;-67
2022/11/30 10:04:58;;;;;;;12.30;6.38;;;6.80;99.90;;;;;;5052818;28;20068;-64
2022/11/30 10:08:17;;;;;;;13.48;6.00;;;6.80;99.90;;;;;;5052629;28;20044;-64
2022/11/30 10:11:02;;;;;;;9.93;5.75;;;6.90;99.90;;;;;;5013220;28;20046;-64
2022/11/30 10:13:38;;;;;;;11.27;6.60;;;6.90;99.90;;;;;;5032723;28;20447;-64
2022/11/30 10:16:12;;;;;;;15.88;7.30;;;7.00;99.90;;;;;;5033066;28;20034;-64
2022/11/30 10:18:45;;;;;;;17.27;8.23;;;7.00;99.90;;;;;;5032783;28;20073;-64
2022/11/30 10:21:29;;;;;;;13.27;6.78;;;6.90;99.90;;;;;;5032692;28;20037;-64
2022/11/30 10:24:10;;;;;;;13.43;6.45;;;6.90;99.90;;;;;;5032706;28;20045;-64
2022/11/30 10:26:44;;;;;;;15.82;7.85;;;6.90;99.90;;;;;;5015269;28;20048;-65
2022/11/30 10:29:24;;;;;;;19.15;7.40;;;6.90;99.90;;;;;;5032701;28;20088;-64
2022/11/30 10:31:57;;;;;;;12.40;6.57;;;6.90;99.90;;;;;;5032598;28;20041;-64
2022/11/30 10:34:34;;;;;;;15.13;7.25;;;6.90;99.90;;;;;;5032476;28;20049;-64
2022/11/30 10:37:11;;;;;;;14.20;7.05;;;6.80;99.90;;;;;;5015177;28;20396;-64
2022/11/30 10:39:43;;;;;;;17.50;8.23;;;6.80;99.90;;;;;;5032552;28;20116;-64
2022/11/30 10:42:19;;;;;;;11.00;6.22;;;6.70;99.90;;;;;;5036235;28;20563;-64
2022/11/30 10:44:56;;;;;;;15.38;6.90;;;6.80;99.90;;;;;;5018699;28;20480;-64
2022/11/30 10:47:27;;;;;;;16.17;7.10;;;6.80;99.90;;;;;;5036494;28;20049;-64
2022/11/30 10:49:54;;;;;;;17.40;6.97;;;6.80;99.90;;;;;;5036170;28;20037;-64
2022/11/30 10:52:30;;;;;;;16.10;6.50;;;6.80;99.90;;;;;;5036029;28;20050;-63
2022/11/30 10:54:58;;;;;;;17.80;8.18;;;6.80;99.90;;;;;;5035927;28;20033;-64
2022/11/30 10:57:29;;;;;;;21.25;8.95;;;6.80;99.90;;;;;;5035923;28;20107;-64
2022/11/30 10:59:58;;;;;;;17.95;7.75;;;6.80;99.90;;;;;;5035920;28;20038;-64
2022/11/30 11:02:38;;;;;;;16.33;8.52;;;6.80;99.90;;;;;;5036113;28;20419;-64
2022/11/30 11:05:22;;;;;;;20.27;8.38;;;7.00;99.90;;;;;;5035810;28;20045;-65
2022/11/30 11:08:18;;;;;;;24.35;8.10;;;6.70;99.90;;;;;;5018318;28;20052;-64
2022/11/30 11:10:50;;;;;;;17.73;8.02;;;6.70;99.90;;;;;;5050882;28;20057;-64
2022/11/30 11:13:40;;;;;;;17.60;8.27;;;6.70;99.90;;;;;;5055839;28;20045;-64
2022/11/30 11:16:08;;;;;;;14.57;7.38;;;6.70;99.90;;;;;;5049908;28;20041;-64
2022/11/30 11:18:36;;;;;;;17.50;8.30;;;6.80;99.90;;;;;;5055785;28;20037;-64
2022/11/30 11:21:15;;;;;;;17.15;8.35;;;6.80;99.90;;;;;;5055736;28;20033;-64
2022/11/30 11:23:42;;;;;;;20.13;8.30;;;6.90;99.90;;;;;;5055365;28;20049;-64
2022/11/30 11:26:23;;;;;;;19.80;8.95;;;6.90;99.90;;;;;;5037510;28;20049;-64
2022/11/30 11:28:51;;;;;;;24.08;9.77;;;6.90;99.90;;;;;;5055347;28;20037;-63
2022/11/30 11:31:32;;;;;;;16.52;8.35;;;6.90;99.90;;;;;;5055553;28;20139;-64
2022/11/30 11:33:57;;;;;;;18.67;9.23;;;6.90;99.90;;;;;;5055457;28;20041;-64
2022/11/30 11:36:29;;;;;;;17.02;8.90;;;6.90;99.90;;;;;;5055385;28;20040;-65
2022/11/30 11:38:56;;;;;;;16.45;8.20;;;6.80;99.90;;;;;;5055153;28;20044;-64
2022/11/30 11:41:30;;;;;;;23.45;8.07;;;6.90;99.90;;;;;;5055040;28;20067;-64
2022/11/30 11:44:08;;;;;;;19.05;8.20;;;6.90;99.90;;;;;;5037230;28;20045;-64
2022/11/30 11:46:36;;;;;;;14.27;7.30;;;6.80;99.90;;;;;;5055220;28;20063;-64
2022/11/30 11:49:24;;;;;;;18.58;8.15;;;6.80;99.90;;;;;;5037139;28;20037;-64
2022/11/30 11:52:04;;;;;;;19.83;8.10;;;6.80;99.90;;;;;;5053920;28;20500;-64
2022/11/30 11:54:53;;;;;;;18.85;9.07;;;6.80;99.90;;;;;;5036929;28;20045;-66
2022/11/30 11:57:26;;;;;;;18.67;8.52;;;6.80;99.90;;;;;;5054997;28;20039;-64
2022/11/30 12:00:01;;;;;;;18.75;7.97;;;6.80;99.90;;;;;;5054758;28;20520;-64
2022/11/30 12:02:46;;;;;;;19.80;9.00;;;6.80;99.90;;;;;;5054674;28;20088;-65
2022/11/30 12:05:28;;;;;;;16.98;8.15;;;6.80;99.90;;;;;;5033508;28;20052;-64
2022/11/30 12:08:32;;;;;;;15.30;7.97;;;6.80;99.90;;;;;;5036949;28;20116;-64
2022/11/30 12:11:03;;;;;;;23.70;9.50;;;6.80;99.90;;;;;;5054283;28;20064;-64
2022/11/30 12:13:37;;;;;;;19.25;9.07;;;6.80;99.90;;;;;;5054402;28;20128;-64
2022/11/30 12:16:05;;;;;;;17.85;8.45;;;6.80;99.90;;;;;;5037053;28;20495;-64
2022/11/30 12:18:46;;;;;;;20.98;9.90;;;6.90;99.90;;;;;;5054620;28;20045;-65
2022/11/30 12:21:21;;;;;;;27.50;9.95;;;6.80;99.90;;;;;;5054601;28;20091;-64
2022/11/30 12:23:56;;;;;;;24.92;10.10;;;6.80;99.90;;;;;;5054259;28;20099;-64
2022/11/30 12:26:35;;;;;;;22.10;8.70;;;6.80;99.90;;;;;;5054209;28;20076;-64
2022/11/30 12:29:21;;;;;;;23.02;9.18;;;6.80;99.90;;;;;;5054095;28;20070;-64
2022/11/30 12:32:01;;;;;;;18.92;9.10;;;6.90;99.90;;;;;;5054069;28;20041;-64
2022/11/30 12:34:43;;;;;;;22.73;10.20;;;6.90;99.90;;;;;;5036604;28;20041;-64
2022/11/30 12:37:30;;;;;;;24.73;9.93;;;6.90;99.90;;;;;;5054354;28;20499;-65
2022/11/30 12:40:20;;;;;;;21.98;9.90;;;6.80;99.90;;;;;;5054257;28;20087;-65
2022/11/30 12:43:08;;;;;;;24.50;9.38;;;6.80;99.90;;;;;;5053854;28;20422;-63
2022/11/30 12:45:41;;;;;;;28.50;11.00;;;6.80;99.90;;;;;;5053732;28;20044;-64
2022/11/30 12:48:17;;;;;;;27.35;11.30;;;6.90;99.90;;;;;;5036196;28;20045;-63
2022/11/30 12:51:01;;;;;;;29.75;11.80;;;6.80;99.90;;;;;;5053664;28;20178;-64
2022/11/30 12:53:56;;;;;;;22.95;10.68;;;6.80;99.90;;;;;;5053541;28;20036;-64
2022/11/30 12:57:04;;;;;;;34.15;11.93;;;6.90;99.90;;;;;;5036035;28;20119;-64
2022/11/30 12:59:57;;;;;;;29.40;11.20;;;6.80;99.90;;;;;;5045428;28;20049;-64
2022/11/30 13:02:54;;;;;;;25.48;11.45;;;6.90;99.90;;;;;;5053650;28;20083;-64
2022/11/30 13:05:42;;;;;;;27.70;11.93;;;6.80;99.90;;;;;;5053788;28;20040;-63
2022/11/30 13:08:18;;;;;;;29.42;11.48;;;6.80;99.90;;;;;;5053469;28;20040;-64